createdAt,value
2018-12-04T00:03:37.701Z,2.43
2018-12-04T00:08:41.652Z,3.20
2018-12-04T00:13:44.991Z,2.27
2018-12-04T00:18:48.353Z,2.77
2018-12-04T00:23:51.903Z,2.83
2018-12-04T00:28:55.344Z,3.17
2018-12-04T00:33:58.937Z,3.17
2018-12-04T00:39:02.970Z,3.07
2018-12-04T00:44:07.477Z,4.47
2018-12-04T00:49:11.019Z,3.27
2018-12-04T00:54:14.415Z,3.53
2018-12-04T00:59:17.829Z,4.50
2018-12-04T01:04:21.506Z,4.30
2018-12-04T01:10:01.782Z,2.93
2018-12-04T01:15:05.185Z,5.40
2018-12-04T01:20:07.491Z,4.10
2018-12-04T01:25:09.843Z,3.67
2018-12-04T01:30:13.378Z,3.30
2018-12-04T01:35:15.674Z,4.33
2018-12-04T01:40:17.947Z,4.83
2018-12-04T01:45:20.127Z,3.13
2018-12-04T01:50:22.398Z,4.37
2018-12-04T01:55:25.706Z,4.20
2018-12-04T02:00:28.221Z,5.93
2018-12-04T02:05:30.283Z,6.13
2018-12-04T02:10:32.795Z,5.30
2018-12-04T02:15:35.179Z,6.53
2018-12-04T02:20:37.335Z,5.80
2018-12-04T02:25:39.426Z,7.40
2018-12-04T02:30:41.733Z,10.87
2018-12-04T02:35:44.230Z,10.10
2018-12-04T02:40:46.362Z,6.33
2018-12-04T02:45:49.049Z,10.80
2018-12-04T02:50:51.317Z,6.43
2018-12-04T02:55:54.307Z,6.57
2018-12-04T03:00:56.838Z,7.93
2018-12-04T03:05:58.935Z,5.03
2018-12-04T03:11:01.447Z,3.23
2018-12-04T03:16:03.729Z,1.37
2018-12-04T03:21:06.029Z,2.63
2018-12-04T03:26:08.247Z,2.13
2018-12-04T03:31:11.376Z,2.33
2018-12-04T03:36:14.414Z,2.67
2018-12-04T03:41:16.791Z,3.03
2018-12-04T03:46:18.974Z,2.60
2018-12-04T03:51:21.295Z,3.83
2018-12-04T03:56:23.534Z,8.30
2018-12-04T04:01:25.599Z,9.27
2018-12-04T04:06:27.681Z,8.30
2018-12-04T04:11:29.978Z,7.23
2018-12-04T04:16:32.162Z,5.27
2018-12-04T04:21:35.069Z,11.87
2018-12-04T04:26:37.310Z,7.23
2018-12-04T04:31:39.856Z,10.70
2018-12-04T04:36:42.523Z,8.47
2018-12-04T04:41:45.133Z,12.87
2018-12-04T04:46:47.212Z,11.80
2018-12-04T04:51:49.387Z,9.50
2018-12-04T04:56:53.792Z,11.70
2018-12-04T05:01:55.914Z,13.67
2018-12-04T05:06:58.108Z,10.10
2018-12-04T05:12:00.396Z,13.07
2018-12-04T05:17:03.869Z,9.97
2018-12-04T05:22:09.728Z,13.27
2018-12-04T05:27:13.464Z,15.50
2018-12-04T05:32:24.018Z,16.67
2018-12-04T05:37:26.065Z,16.23
2018-12-04T05:42:28.999Z,21.37
2018-12-04T05:47:31.740Z,15.77
2018-12-04T05:52:33.786Z,16.93
2018-12-04T05:57:37.119Z,15.67
2018-12-04T06:02:39.266Z,13.77
2018-12-04T06:07:41.383Z,17.00
2018-12-04T06:12:43.880Z,15.67
2018-12-04T06:17:46.185Z,17.37
2018-12-04T06:22:48.530Z,15.43
2018-12-04T06:27:50.627Z,15.13
2018-12-04T06:32:53.147Z,17.37
2018-12-04T06:37:55.219Z,13.13
2018-12-04T06:48:06.394Z,19.27
2018-12-04T06:53:08.894Z,16.63
2018-12-04T06:58:11.935Z,13.97
2018-12-04T07:03:14.123Z,15.70
2018-12-04T07:08:16.339Z,19.10
2018-12-04T07:13:18.671Z,13.17
2018-12-04T07:18:21.155Z,15.87
2018-12-04T07:23:23.219Z,16.77
2018-12-04T07:28:26.108Z,20.40
2018-12-04T07:33:28.414Z,15.10
2018-12-04T07:38:30.631Z,16.77
2018-12-04T07:43:33.095Z,13.57
2018-12-04T07:48:35.280Z,15.40
2018-12-04T07:53:37.486Z,10.33
2018-12-04T07:58:39.711Z,17.00
2018-12-04T08:03:41.807Z,12.67
2018-12-04T08:08:43.970Z,12.23
2018-12-04T08:13:46.091Z,15.07
2018-12-04T08:18:48.304Z,15.37
2018-12-04T08:23:50.504Z,12.87
2018-12-04T08:28:52.616Z,15.87
2018-12-04T08:33:54.864Z,18.60
2018-12-04T08:38:57.154Z,14.70
2018-12-04T08:43:59.236Z,15.90
2018-12-04T08:49:01.299Z,14.63
2018-12-04T08:54:03.580Z,20.90
2018-12-04T08:59:05.872Z,10.93
2018-12-04T09:04:08.174Z,15.83
2018-12-04T09:09:11.283Z,7.27
2018-12-04T09:14:13.703Z,14.17
2018-12-04T09:19:16.067Z,13.50
2018-12-04T09:24:18.238Z,9.50
2018-12-04T09:29:20.588Z,16.00
2018-12-04T09:34:22.785Z,7.80
2018-12-04T09:39:25.247Z,8.10
2018-12-04T09:44:34.770Z,14.73
2018-12-04T09:49:37.194Z,11.90
2018-12-04T09:54:39.277Z,12.43
2018-12-04T09:59:41.422Z,8.87
2018-12-04T10:04:43.722Z,13.73
2018-12-04T10:09:45.800Z,11.33
2018-12-04T10:14:47.898Z,11.97
2018-12-04T10:19:50.231Z,13.33
2018-12-04T10:24:52.693Z,13.97
2018-12-04T10:29:54.897Z,15.73
2018-12-04T10:34:57.339Z,12.00
2018-12-04T10:39:59.451Z,15.73
2018-12-04T10:45:01.618Z,13.50
2018-12-04T10:50:06.258Z,12.63
2018-12-04T10:55:08.672Z,12.70
2018-12-04T11:00:15.631Z,20.30
2018-12-04T11:05:17.989Z,13.27
2018-12-04T11:10:20.174Z,13.20
2018-12-04T11:15:22.416Z,14.53
2018-12-04T11:20:24.667Z,12.37
2018-12-04T11:25:26.883Z,15.17
2018-12-04T11:30:29.022Z,14.90
2018-12-04T11:35:31.542Z,15.60
2018-12-04T11:40:33.770Z,12.70
2018-12-04T11:45:35.943Z,13.87
2018-12-04T11:50:38.058Z,12.47
2018-12-04T11:55:40.986Z,13.90
2018-12-04T12:00:43.370Z,16.03
2018-12-04T12:05:45.543Z,15.20
2018-12-04T12:10:49.776Z,10.17
2018-12-04T12:15:52.063Z,10.93
2018-12-04T12:20:54.226Z,13.70
2018-12-04T12:25:56.560Z,11.83
2018-12-04T12:30:59.019Z,6.43
2018-12-04T12:36:01.352Z,7.50
2018-12-04T12:41:03.679Z,10.50
2018-12-04T12:46:05.802Z,10.37
2018-12-04T12:51:09.523Z,10.30
2018-12-04T12:56:12.066Z,13.33
2018-12-04T13:01:14.310Z,14.03
2018-12-04T13:06:16.583Z,12.73
2018-12-04T13:11:18.778Z,9.70
2018-12-04T13:16:26.021Z,11.03
2018-12-04T13:21:28.090Z,12.67
2018-12-04T13:26:30.284Z,11.30
2018-12-04T13:31:33.347Z,17.17
2018-12-04T13:36:35.528Z,12.13
2018-12-04T13:41:37.779Z,8.77
2018-12-04T13:46:39.831Z,10.10
2018-12-04T13:51:42.003Z,17.80
2018-12-04T13:56:44.212Z,9.77
2018-12-04T14:01:46.418Z,13.20
2018-12-04T14:06:49.104Z,10.53
2018-12-04T14:11:51.376Z,10.03
2018-12-04T14:17:00.529Z,10.73
2018-12-04T14:22:02.811Z,12.60
2018-12-04T14:27:05.037Z,9.90
2018-12-04T14:32:07.307Z,8.23
2018-12-04T14:37:09.529Z,12.27
2018-12-04T14:42:12.519Z,14.37
2018-12-04T14:47:14.717Z,13.10
2018-12-04T14:52:16.945Z,12.80
2018-12-04T14:57:19.431Z,10.73
2018-12-04T15:02:21.944Z,10.73
2018-12-04T15:07:24.277Z,9.57
2018-12-04T15:12:26.682Z,14.40
2018-12-04T15:17:28.883Z,11.10
2018-12-04T15:22:30.963Z,14.23
2018-12-04T15:27:33.311Z,10.27
2018-12-04T15:32:35.685Z,14.37
2018-12-04T15:37:44.899Z,19.03
2018-12-04T15:42:47.111Z,11.13
2018-12-04T15:47:49.407Z,10.70
2018-12-04T15:52:51.482Z,10.73
2018-12-04T15:57:53.786Z,7.00
2018-12-04T16:02:56.064Z,14.90
2018-12-04T16:07:58.226Z,13.03
2018-12-04T16:13:00.438Z,12.67
2018-12-04T16:18:02.670Z,9.60
2018-12-04T16:23:04.862Z,11.60
2018-12-04T16:28:06.910Z,12.97
2018-12-04T16:33:09.011Z,13.07
2018-12-04T16:38:11.196Z,13.30
2018-12-04T16:43:13.863Z,11.63
2018-12-04T16:48:17.295Z,11.77
2018-12-04T16:53:19.360Z,13.80
2018-12-04T16:58:21.414Z,16.77
2018-12-04T17:03:23.522Z,13.60
2018-12-04T17:08:25.983Z,13.47
2018-12-04T17:13:28.044Z,14.90
2018-12-04T17:18:37.452Z,9.03
2018-12-04T17:23:34.338Z,18.20
2018-12-04T17:28:36.514Z,16.63
2018-12-04T17:33:38.765Z,16.87
2018-12-04T17:38:40.887Z,12.77
2018-12-04T17:43:43.086Z,9.33
2018-12-04T17:48:45.282Z,7.93
2018-12-04T17:53:47.456Z,15.90
2018-12-04T17:58:51.543Z,13.47
2018-12-04T18:04:00.847Z,13.00
2018-12-04T18:09:05.867Z,14.80
2018-12-04T18:14:09.955Z,13.33
2018-12-04T18:19:12.282Z,12.67
2018-12-04T18:24:16.420Z,12.67
2018-12-04T18:29:19.131Z,10.07
2018-12-04T18:34:22.367Z,17.10
2018-12-04T18:39:24.425Z,14.53
2018-12-04T18:44:26.804Z,12.10
2018-12-04T18:49:29.050Z,19.60
2018-12-04T18:54:31.358Z,13.80
2018-12-04T18:59:33.418Z,16.73
2018-12-04T19:04:35.587Z,15.40
2018-12-04T19:09:37.650Z,13.13
2018-12-04T19:14:39.880Z,16.03
2018-12-04T19:19:41.938Z,11.10
2018-12-04T19:24:44.130Z,12.37
2018-12-04T19:29:46.522Z,14.83
2018-12-04T19:34:49.175Z,12.67
2018-12-04T19:39:51.469Z,15.47
2018-12-04T19:44:53.699Z,14.13
2018-12-04T19:49:55.943Z,14.17
2018-12-04T19:54:58.337Z,8.77
2018-12-04T20:00:00.736Z,23.27
2018-12-04T20:05:03.248Z,14.20
2018-12-04T20:10:06.270Z,15.93
2018-12-04T20:15:09.020Z,10.63
2018-12-04T20:20:11.088Z,14.63
2018-12-04T20:25:13.293Z,15.43
2018-12-04T20:30:15.604Z,11.20
2018-12-04T20:35:17.698Z,11.73
2018-12-04T20:40:23.624Z,11.67
2018-12-04T20:45:26.050Z,9.80
2018-12-04T20:50:29.266Z,15.37
2018-12-04T20:55:31.438Z,6.83
2018-12-04T21:00:33.847Z,8.47
2018-12-04T21:05:36.196Z,17.20
2018-12-04T21:10:38.387Z,16.27
2018-12-04T21:15:40.567Z,11.07
2018-12-04T21:20:43.063Z,16.83
2018-12-04T21:25:45.283Z,14.17
2018-12-04T21:30:53.438Z,12.83
2018-12-04T21:36:08.585Z,12.43
2018-12-04T21:41:15.397Z,15.90
2018-12-04T21:48:29.233Z,15.67
2018-12-04T21:53:31.403Z,9.97
2018-12-04T21:58:33.554Z,18.77
2018-12-04T22:03:36.130Z,9.33
2018-12-04T22:08:38.336Z,17.30
2018-12-04T22:13:40.581Z,12.53
2018-12-04T22:18:42.940Z,11.37
2018-12-04T22:23:45.215Z,11.10
2018-12-04T22:28:47.645Z,10.37
2018-12-04T22:33:49.842Z,17.83
2018-12-04T22:38:52.155Z,18.23
2018-12-04T22:43:54.414Z,17.00
2018-12-04T22:48:56.877Z,13.60
2018-12-04T22:53:59.023Z,11.67
2018-12-04T22:59:01.322Z,20.43
2018-12-04T23:04:03.973Z,16.40
2018-12-04T23:09:09.577Z,14.20
2018-12-04T23:14:13.071Z,8.03
2018-12-04T23:19:15.374Z,16.03
2018-12-04T23:24:17.504Z,10.87
2018-12-04T23:29:19.882Z,14.53
2018-12-04T23:34:22.334Z,13.90
2018-12-04T23:39:24.479Z,14.17
2018-12-04T23:44:26.815Z,16.13
2018-12-04T23:49:29.588Z,13.40
2018-12-04T23:54:31.918Z,12.10
2018-12-04T23:59:34.369Z,16.73
